createdAt,value
2018-09-04T00:04:21.370Z,42.70
2018-09-04T00:12:56.950Z,38.57
2018-09-04T00:15:26.844Z,36.43
2018-09-04T00:23:42.628Z,37.70
2018-09-04T00:43:28.752Z,39.10
2018-09-04T01:03:14.299Z,34.83
2018-09-04T01:34:31.098Z,40.63
2018-09-04T02:34:35.200Z,38.53
2018-09-04T03:34:41.947Z,34.53
2018-09-04T05:00:50.123Z,38.80
2018-09-04T05:03:23.039Z,38.97
2018-09-04T05:05:53.582Z,43.80
2018-09-04T05:08:32.293Z,44.13
2018-09-04T05:11:06.618Z,47.47
2018-09-04T05:13:37.127Z,44.80
2018-09-04T05:19:01.279Z,40.97
2018-09-04T05:21:32.051Z,38.30
2018-09-04T05:24:03.155Z,39.87
2018-09-04T05:26:33.328Z,40.13
2018-09-04T05:29:04.591Z,41.70
2018-09-04T05:31:40.960Z,46.30
2018-09-04T05:34:11.688Z,46.13
2018-09-04T05:36:42.036Z,45.63
2018-09-04T05:39:12.629Z,41.43
2018-09-04T05:41:43.467Z,43.17
2018-09-04T05:44:14.391Z,40.10
2018-09-04T05:46:47.960Z,43.20
2018-09-04T05:49:21.622Z,42.90
2018-09-04T05:51:52.227Z,44.17
2018-09-04T05:54:30.931Z,46.13
2018-09-04T05:57:01.859Z,44.03
2018-09-04T05:59:32.570Z,45.07
2018-09-04T06:02:03.185Z,43.33
2018-09-04T06:04:33.742Z,43.73
2018-09-04T06:07:04.793Z,47.50
2018-09-04T06:09:35.393Z,51.93
2018-09-04T06:12:06.048Z,52.33
2018-09-04T06:14:36.654Z,49.80
2018-09-04T06:17:07.594Z,50.70
2018-09-04T06:19:38.034Z,50.93
2018-09-04T06:22:08.291Z,49.47
2018-09-04T06:24:39.215Z,46.57
2018-09-04T06:27:09.880Z,44.77
2018-09-04T06:29:40.463Z,47.30
2018-09-04T06:32:11.321Z,52.33
2018-09-04T06:34:42.247Z,49.43
2018-09-04T06:37:12.610Z,49.03
2018-09-04T06:39:43.506Z,50.23
2018-09-04T06:42:14.188Z,54.50
2018-09-04T06:44:44.518Z,53.07
2018-09-04T06:47:14.792Z,52.23
2018-09-04T06:49:45.454Z,51.30
2018-09-04T06:52:16.264Z,54.20
2018-09-04T06:54:46.863Z,52.03
2018-09-04T06:57:17.109Z,52.03
2018-09-04T07:02:38.968Z,48.00
2018-09-04T07:05:09.649Z,51.23
2018-09-04T07:13:24.407Z,45.40
2018-09-04T07:15:54.304Z,49.73
2018-09-04T07:21:16.010Z,48.10
2018-09-04T07:23:45.917Z,47.23
2018-09-04T07:26:15.107Z,51.00
2018-09-04T07:28:43.859Z,52.27
2018-09-04T07:34:05.467Z,53.37
2018-09-04T07:36:34.596Z,51.97
2018-09-04T07:39:03.816Z,50.03
2018-09-04T07:41:32.601Z,53.43
2018-09-04T07:44:01.817Z,54.63
2018-09-04T07:46:30.590Z,54.13
2018-09-04T07:49:02.938Z,54.77
2018-09-04T07:51:32.054Z,55.07
2018-09-04T07:54:00.864Z,51.17
2018-09-04T07:56:29.673Z,50.17
2018-09-04T08:04:45.882Z,53.50
2018-09-04T08:07:15.349Z,59.40
2018-09-04T08:09:44.282Z,56.97
2018-09-04T08:15:06.613Z,48.53
2018-09-04T08:20:28.564Z,53.47
2018-09-04T08:22:57.727Z,53.07
2018-09-04T08:25:27.292Z,56.40
2018-09-04T08:27:56.076Z,57.67
2018-09-04T08:30:24.912Z,58.03
2018-09-04T08:32:53.719Z,59.37
2018-09-04T08:35:22.446Z,60.37
2018-09-04T08:37:55.342Z,66.40
2018-09-04T08:40:24.305Z,66.67
2018-09-04T08:42:53.036Z,78.97
2018-09-04T08:45:21.926Z,72.83
2018-09-04T08:47:50.775Z,72.87
2018-09-04T08:50:19.570Z,79.17
2018-09-04T08:52:48.454Z,76.10
2018-09-04T08:55:17.210Z,75.27
2018-09-04T08:57:46.037Z,74.60
2018-09-04T09:00:15.334Z,71.13
2018-09-04T09:02:44.031Z,76.07
2018-09-04T09:05:12.841Z,78.50
2018-09-04T09:07:41.616Z,76.97
2018-09-04T09:10:10.511Z,76.47
2018-09-04T09:12:39.171Z,75.03
2018-09-04T09:15:07.986Z,76.40
2018-09-04T09:17:36.706Z,73.40
2018-09-04T09:20:05.798Z,74.50
2018-09-04T09:22:34.523Z,70.23
2018-09-04T09:25:04.270Z,70.17
2018-09-04T09:27:38.044Z,69.20
2018-09-04T09:30:06.900Z,77.80
2018-09-04T09:32:35.848Z,82.67
2018-09-04T09:35:06.708Z,75.23
2018-09-04T09:37:35.565Z,73.43
2018-09-04T09:40:05.024Z,74.37
2018-09-04T09:42:33.874Z,69.67
2018-09-04T09:45:02.632Z,68.00
2018-09-04T09:47:31.817Z,71.37
2018-09-04T09:50:00.558Z,69.37
2018-09-04T09:52:29.353Z,74.87
2018-09-04T09:54:58.171Z,71.53
2018-09-04T09:57:26.879Z,74.37
2018-09-04T09:59:55.974Z,68.13
2018-09-04T10:02:29.926Z,65.95
2018-09-04T10:04:58.735Z,62.60
2018-09-04T10:07:27.556Z,62.75
2018-09-04T10:09:56.372Z,64.40
2018-09-04T10:12:25.193Z,67.62
2018-09-04T10:14:54.022Z,65.37
2018-09-04T10:17:22.731Z,64.58
2018-09-04T10:19:52.087Z,66.02
2018-09-04T10:22:20.836Z,62.40
2018-09-04T10:24:49.584Z,61.60
2018-09-04T10:27:18.315Z,61.08
2018-09-04T10:29:47.064Z,63.73
2018-09-04T10:32:16.175Z,64.10
2018-09-04T10:34:44.908Z,59.50
2018-09-04T10:37:13.653Z,59.15
2018-09-04T10:39:47.571Z,63.40
2018-09-04T10:42:20.532Z,62.23
2018-09-04T10:44:49.394Z,64.95
2018-09-04T10:47:18.186Z,60.23
2018-09-04T10:49:46.949Z,58.63
2018-09-04T10:52:15.731Z,57.13
2018-09-04T10:54:44.546Z,56.68
2018-09-04T10:57:13.468Z,59.77
2018-09-04T10:59:42.294Z,61.23
2018-09-04T11:02:12.039Z,59.65
2018-09-04T11:04:40.911Z,56.88
2018-09-04T11:07:09.626Z,59.42
2018-09-04T11:09:38.572Z,58.55
2018-09-04T11:12:07.158Z,58.55
2018-09-04T11:14:35.912Z,55.00
2018-09-04T11:17:04.795Z,55.67
2018-09-04T11:19:33.523Z,52.40
2018-09-04T11:22:02.291Z,56.80
2018-09-04T11:24:30.999Z,55.28
2018-09-04T11:26:59.994Z,55.28
2018-09-04T11:29:28.695Z,49.67
2018-09-04T11:31:57.452Z,52.45
2018-09-04T11:34:26.287Z,51.30
2018-09-04T11:36:55.031Z,47.40
2018-09-04T11:39:23.818Z,49.58
2018-09-04T11:41:52.604Z,48.05
2018-09-04T11:44:21.320Z,45.38
2018-09-04T11:46:50.872Z,46.75
2018-09-04T11:49:19.588Z,47.20
2018-09-04T11:57:34.111Z,44.50
2018-09-04T12:00:03.446Z,40.98
2018-09-04T12:02:34.959Z,34.08
2018-09-04T12:05:03.707Z,36.45
2018-09-04T12:07:32.498Z,41.63
2018-09-04T12:10:01.230Z,37.98
2018-09-04T12:12:31.339Z,42.38
2018-09-04T12:14:59.949Z,44.50
2018-09-04T12:17:28.802Z,42.90
2018-09-04T12:21:06.690Z,45.52
2018-09-04T12:23:35.468Z,47.13
2018-09-04T12:26:05.655Z,46.10
2018-09-04T12:28:34.522Z,45.17
2018-09-04T12:31:03.557Z,44.50
2018-09-04T12:33:32.318Z,46.28
2018-09-04T12:36:06.366Z,44.70
2018-09-04T12:38:38.026Z,48.30
2018-09-04T12:41:12.401Z,46.65
2018-09-04T12:43:41.201Z,45.45
2018-09-04T12:46:09.995Z,45.12
2018-09-04T12:48:38.832Z,41.83
2018-09-04T12:51:07.726Z,45.45
2018-09-04T12:53:37.614Z,44.65
2018-09-04T12:56:06.577Z,41.23
2018-09-04T12:58:35.286Z,39.80
2018-09-04T13:01:05.647Z,40.20
2018-09-04T13:03:35.727Z,40.48
2018-09-04T13:06:04.730Z,41.37
2018-09-04T13:08:34.238Z,34.00
2018-09-04T13:11:04.118Z,39.30
2018-09-04T13:13:33.058Z,38.00
2018-09-04T13:16:02.048Z,33.23
2018-09-04T13:18:31.113Z,36.63
2018-09-04T13:21:06.817Z,35.63
2018-09-04T13:23:36.129Z,32.80
2018-09-04T13:26:05.091Z,34.53
2018-09-04T13:28:34.335Z,32.05
2018-09-04T13:31:03.230Z,29.72
2018-09-04T13:33:32.036Z,33.08
2018-09-04T13:36:04.883Z,31.68
2018-09-04T13:38:33.736Z,32.75
2018-09-04T13:41:06.954Z,34.27
2018-09-04T13:43:36.385Z,30.82
2018-09-04T13:46:05.405Z,34.98
2018-09-04T13:48:34.944Z,28.67
2018-09-04T13:51:03.705Z,31.00
2018-09-04T13:53:32.536Z,30.17
2018-09-04T13:56:01.732Z,31.42
2018-09-04T13:58:30.584Z,31.82
2018-09-04T14:00:59.328Z,31.00
2018-09-04T14:04:24.208Z,28.00
2018-09-04T14:06:53.034Z,27.22
2018-09-04T14:09:22.588Z,28.42
2018-09-04T14:11:51.474Z,31.10
2018-09-04T14:14:20.959Z,28.70
2018-09-04T14:16:50.510Z,29.30
2018-09-04T14:19:22.016Z,26.95
2018-09-04T14:21:55.019Z,27.80
2018-09-04T14:24:25.246Z,27.62
2018-09-04T14:26:54.056Z,30.57
2018-09-04T14:29:53.158Z,32.17
2018-09-04T14:31:52.619Z,28.65
2018-09-04T14:34:22.112Z,27.70
2018-09-04T14:36:51.197Z,32.58
2018-09-04T14:39:19.897Z,33.70
2018-09-04T14:41:48.718Z,35.13
2018-09-04T14:44:17.770Z,36.85
2018-09-04T14:46:47.523Z,38.75
2018-09-04T14:49:16.353Z,38.60
2018-09-04T14:51:45.141Z,33.25
2018-09-04T14:54:14.021Z,38.00
2018-09-04T14:56:42.845Z,40.90
2018-09-04T14:59:12.500Z,39.40
2018-09-04T15:01:41.279Z,37.85
2018-09-04T15:04:10.175Z,35.83
2018-09-04T15:06:40.651Z,34.05
2018-09-04T15:09:09.626Z,32.80
2018-09-04T15:11:38.483Z,38.83
2018-09-04T15:14:07.262Z,36.85
2018-09-04T15:16:45.679Z,35.45
2018-09-04T15:19:18.392Z,32.63
2018-09-04T15:21:49.709Z,31.60
2018-09-04T15:24:18.840Z,28.30
2018-09-04T15:26:48.575Z,29.18
2018-09-04T15:29:17.436Z,29.95
2018-09-04T15:31:47.153Z,33.65
2018-09-04T15:34:16.018Z,33.18
2018-09-04T15:36:44.917Z,31.10
2018-09-04T15:39:14.175Z,28.07
2018-09-04T15:41:44.017Z,28.73
2018-09-04T15:44:17.935Z,29.20
2018-09-04T15:46:46.736Z,35.52
2018-09-04T15:49:20.889Z,39.27
2018-09-04T15:51:49.699Z,41.83
2018-09-04T15:54:18.509Z,43.57
2018-09-04T15:56:48.126Z,49.67
2018-09-04T15:59:16.967Z,49.80
2018-09-04T16:01:45.753Z,50.40
2018-09-04T16:04:14.865Z,45.50
2018-09-04T16:06:43.758Z,41.27
2018-09-04T16:09:12.703Z,40.40
2018-09-04T16:11:45.572Z,33.47
2018-09-04T16:14:18.327Z,30.77
2018-09-04T16:16:47.295Z,27.07
2018-09-04T16:19:18.074Z,25.10
2018-09-04T16:21:47.479Z,23.83
2018-09-04T16:24:17.624Z,21.77
2018-09-04T16:26:50.529Z,21.00
2018-09-04T16:29:19.543Z,26.33
2018-09-04T16:31:49.127Z,25.83
2018-09-04T16:34:18.369Z,25.87
2018-09-04T16:36:47.195Z,24.23
2018-09-04T16:39:17.083Z,27.37
2018-09-04T16:41:51.218Z,27.03
2018-09-04T16:44:20.596Z,25.97
2018-09-04T16:46:51.652Z,27.00
2018-09-04T16:49:31.849Z,25.97
2018-09-04T16:52:02.272Z,25.27
2018-09-04T16:54:37.141Z,29.37
2018-09-04T16:57:08.477Z,27.90
2018-09-04T16:59:37.973Z,25.87
2018-09-04T17:02:13.710Z,25.87
2018-09-04T17:04:44.328Z,22.00
2018-09-04T17:07:14.968Z,24.13
2018-09-04T17:09:50.922Z,21.47
2018-09-04T17:12:21.444Z,20.63
2018-09-04T17:14:51.635Z,18.83
2018-09-04T17:17:26.569Z,20.07
2018-09-04T17:19:58.067Z,18.20
2018-09-04T17:22:34.545Z,17.87
2018-09-04T17:25:04.255Z,18.47
2018-09-04T17:27:44.669Z,16.70
2018-09-04T17:30:19.977Z,15.00
2018-09-04T17:32:49.396Z,15.03
2018-09-04T17:35:19.787Z,15.23
2018-09-04T17:37:53.469Z,15.93
2018-09-04T17:40:23.130Z,15.03
2018-09-04T17:42:56.376Z,14.63
2018-09-04T17:45:28.698Z,14.53
2018-09-04T17:48:00.402Z,15.20
2018-09-04T17:50:56.356Z,14.37
2018-09-04T17:53:29.503Z,14.03
2018-09-04T17:56:01.811Z,16.43
2018-09-04T18:01:14.217Z,15.57
2018-09-04T18:03:56.450Z,17.43
2018-09-04T18:06:27.533Z,18.43
2018-09-04T18:09:01.083Z,17.53
2018-09-04T18:14:26.839Z,18.83
2018-09-04T18:17:16.126Z,20.03
2018-09-04T18:19:47.892Z,19.47
2018-09-04T18:22:19.892Z,18.60
2018-09-04T18:24:49.884Z,17.50
2018-09-04T18:27:20.558Z,18.93
2018-09-04T18:32:57.756Z,17.53
2018-09-04T18:35:29.797Z,19.33
2018-09-04T18:38:19.401Z,18.27
2018-09-04T18:41:11.874Z,19.07
